Terminal Aerodrome Forecast
Issued by NWS

Home | Current Version | Previous Version | Text Only | Print | Product List | Glossary Off
Versions: 1 2 3 4 5 6 7 8 9 10 11 12 13 14 15 16 17 18 19 20

000
FTUS42 KMHX 222007 AAA
TAFOAJ
TAF AMD
KOAJ 222007Z 2220/2318 34006KT P6SM VCSH BKN035
      TEMPO 2220/2222 BKN025
     FM222300 34008KT P6SM VCSH BKN040
     FM230700 33003KT P6SM BKN020
     FM230900 33003KT P6SM BKN009
     FM231200 33005KT P6SM BKN020
      AMD LTD TO CLD VIS AND WIND=

USA.gov is the U.S. government's official web portal to all federal, state and local government web resources and services.